This is the latest recevied weather packets stored in our database for station/object W8BS. If no packets are shown the sender has not sent any weather packets the latest 1 day(s).
| Time | Temp. | Humidity | Pressure | Rain* | Wind** | Luminosity | Snow |
|---|---|---|---|---|---|---|---|
| 1836274611 | 18.33° C | 84% | 1020.6 hPa | 0 mm | 0 m/s | 0 W/m² | - |
| 1836274464 | 17.78° C | 85% | 1020.7 hPa | 0 mm | 0 m/s | 0 W/m² | - |
| 1836274309 | 18.33° C | 84% | 1020.6 hPa | 0 mm | 0 m/s | 0 W/m² | - |
| 1836274162 | 17.78° C | 84% | 1020.5 hPa | 0 mm | 0 m/s | 0 W/m² | - |
| 1836274008 | 18.33° C | 83% | 1020.5 hPa | 0 mm | 0 m/s | 0 W/m² | - |
| 1778047689 | 17.22° C | 60% | 1008.2 hPa | 0 mm | 0.45 m/s, 196° | 0 W/m² | - |
| 1778047387 | 17.22° C | 60% | 1008.1 hPa | 0 mm | 0 m/s | 0 W/m² | - |
| 1778047083 | 17.22° C | 60% | 1008.3 hPa | 0 mm | 0 m/s | 0 W/m² | - |
| 1778046780 | 17.22° C | 60% | 1008.4 hPa | 0 mm | 0.45 m/s, 196° | 0 W/m² | - |
| 1778046477 | 17.22° C | 59% | 1008.7 hPa | 0 mm | 0 m/s | 0 W/m² | - |
| 1778046173 | 17.22° C | 59% | 1009 hPa | 0 mm | 0.45 m/s, 196° | 0 W/m² | - |
| 1778045870 | 17.22° C | 60% | 1008.7 hPa | 0 mm | 0 m/s | 0 W/m² | - |
| 1778045569 | 17.22° C | 60% | 1008.8 hPa | 0 mm | 0 m/s | 0 W/m² | - |
| 1778045266 | 17.22° C | 59% | 1009.1 hPa | 0 mm | 0 m/s | 0 W/m² | - |
| 1778044965 | 17.78° C | 57% | 1009.1 hPa | 0 mm | 0 m/s | 0 W/m² | - |
| 1778044662 | 17.22° C | 58% | 1009 hPa | 0 mm | 0 m/s | 0 W/m² | - |
| 1778044358 | 17.78° C | 58% | 1009.1 hPa | 0 mm | 0 m/s | 0 W/m² | - |
| 1778044056 | 17.78° C | 58% | 1009.4 hPa | 0 mm | 0 m/s | 0 W/m² | - |
| 1778043753 | 17.78° C | 57% | 1009.4 hPa | 0 mm | 0 m/s | 0 W/m² | - |
| 1778043449 | 17.78° C | 56% | 1009.2 hPa | 0 mm | 0.45 m/s, 196° | 0 W/m² | - |
| 1778043146 | 17.78° C | 56% | 1009.1 hPa | 0 mm | 0.45 m/s, 196° | 0 W/m² | - |
| 1778042844 | 17.78° C | 56% | 1009.3 hPa | 0 mm | 0.45 m/s, 197° | 0 W/m² | - |
| 1778042541 | 17.78° C | 55% | 1009.5 hPa | 0 mm | 0 m/s | 0 W/m² | - |
| 1778042238 | 17.78° C | 56% | 1009.4 hPa | 0 mm | 0.89 m/s, 200° | 0 W/m² | - |
| 1778041936 | 17.78° C | 57% | 1009.4 hPa | 0 mm | 0.45 m/s, 195° | 0 W/m² | - |
* Rain latest hour (hover to see other rain measurements)
** Current wind speed in m/s (hover to see current wind gust speed)